KCPR/CPR METAR and TAF weather

Enter ICAO airport designator
Station Type Date Time Source
KCPR METAR 2020/09/18 05:53 UTC NOAA

KCPR 180553Z AUTO 22006KT 6SM HZ CLR 10/04 A3028 RMK AO2 SLP211 T01000039 10239 20089 51004


Station Type Date Time Source
KCPR Decoded METAR 2020/09/18 05:53 UTC NOAA

NATRONA COUNTY INTERNATIONAL AIRPORT , WY, United States (KCPR) 42-54N 106-28W 1621M
Sep 18, 2020 - 01:53 AM EDT / 2020.09.18 0553 UTC
Wind: from the SW (220 degrees) at 7 MPH (6 KT):0
Visibility: 6 mile(s):0
Sky conditions: clear
Weather: haze
Temperature: 50.0 F (10.0 C)
Dew Point: 39.0 F (3.9 C)
Relative Humidity: 65%
Pressure (altimeter): 30.28 in. Hg (1025 hPa)
Pressure tendency: 0.01 inches (0.4 hPa) higher than three hours ago
ob: KCPR 180553Z AUTO 22006KT 6SM HZ CLR 10/04 A3028 RMK AO2 SLP211 T01000039 10239 20089 51004
cycle: 6

Station Type Date Time Source
KCPR TAF 2020/09/18 06:33 UTC NOAA

TAF KCPR 180531Z 1806/1906 23005KT 5SM FU SKC
FM181800 22011KT 6SM FU SKC

Example: see airport list